sensor_id;sensor_type;location;lat;lon;timestamp;P1;durP1;ratioP1;P2;durP2;ratioP2
3149;SDS011;32503;47.748;8.960;2023-10-13T00:02:10;7.33;;;3.00;;
3149;SDS011;32503;47.748;8.960;2023-10-13T00:04:39;3.07;;;2.83;;
3149;SDS011;32503;47.748;8.960;2023-10-13T00:07:07;3.27;;;3.07;;
3149;SDS011;32503;47.748;8.960;2023-10-13T00:09:34;3.40;;;3.10;;
3149;SDS011;32503;47.748;8.960;2023-10-13T00:12:03;3.70;;;3.40;;
3149;SDS011;32503;47.748;8.960;2023-10-13T00:14:35;3.80;;;3.50;;
3149;SDS011;32503;47.748;8.960;2023-10-13T00:17:05;3.83;;;3.27;;
3149;SDS011;32503;47.748;8.960;2023-10-13T00:19:35;4.87;;;4.47;;
3149;SDS011;32503;47.748;8.960;2023-10-13T00:22:12;4.10;;;3.70;;
3149;SDS011;32503;47.748;8.960;2023-10-13T00:24:41;3.17;;;2.87;;
3149;SDS011;32503;47.748;8.960;2023-10-13T00:27:11;2.90;;;2.80;;
3149;SDS011;32503;47.748;8.960;2023-10-13T00:29:55;3.30;;;3.10;;
3149;SDS011;32503;47.748;8.960;2023-10-13T00:32:40;4.27;;;3.50;;
3149;SDS011;32503;47.748;8.960;2023-10-13T00:35:09;4.17;;;3.87;;
3149;SDS011;32503;47.748;8.960;2023-10-13T00:37:39;3.03;;;2.83;;
3149;SDS011;32503;47.748;8.960;2023-10-13T00:40:09;3.70;;;3.50;;
3149;SDS011;32503;47.748;8.960;2023-10-13T00:43:00;6.30;;;3.83;;
3149;SDS011;32503;47.748;8.960;2023-10-13T00:45:50;3.60;;;3.30;;
3149;SDS011;32503;47.748;8.960;2023-10-13T00:48:23;3.40;;;3.20;;
3149;SDS011;32503;47.748;8.960;2023-10-13T00:50:59;3.40;;;3.10;;
3149;SDS011;32503;47.748;8.960;2023-10-13T00:53:32;4.13;;;3.43;;
3149;SDS011;32503;47.748;8.960;2023-10-13T00:56:02;3.80;;;3.50;;
3149;SDS011;32503;47.748;8.960;2023-10-13T00:58:32;6.53;;;4.00;;
3149;SDS011;32503;47.748;8.960;2023-10-13T01:00:59;4.33;;;3.60;;
3149;SDS011;32503;47.748;8.960;2023-10-13T01:03:44;5.20;;;3.10;;
3149;SDS011;32503;47.748;8.960;2023-10-13T01:06:13;4.67;;;4.27;;
3149;SDS011;32503;47.748;8.960;2023-10-13T01:08:45;4.60;;;3.47;;
3149;SDS011;32503;47.748;8.960;2023-10-13T01:11:16;3.50;;;3.30;;
3149;SDS011;32503;47.748;8.960;2023-10-13T01:13:43;4.43;;;3.90;;
3149;SDS011;32503;47.748;8.960;2023-10-13T01:16:16;3.87;;;3.50;;
3149;SDS011;32503;47.748;8.960;2023-10-13T01:18:42;3.97;;;3.67;;
3149;SDS011;32503;47.748;8.960;2023-10-13T01:21:15;5.97;;;3.47;;
3149;SDS011;32503;47.748;8.960;2023-10-13T01:23:46;4.33;;;4.00;;
3149;SDS011;32503;47.748;8.960;2023-10-13T01:26:15;4.40;;;4.00;;
3149;SDS011;32503;47.748;8.960;2023-10-13T01:28:46;5.17;;;3.63;;
3149;SDS011;32503;47.748;8.960;2023-10-13T01:31:15;4.83;;;3.87;;
3149;SDS011;32503;47.748;8.960;2023-10-13T01:33:50;3.90;;;3.60;;
3149;SDS011;32503;47.748;8.960;2023-10-13T01:36:22;3.87;;;3.57;;
3149;SDS011;32503;47.748;8.960;2023-10-13T01:38:50;4.20;;;3.80;;
3149;SDS011;32503;47.748;8.960;2023-10-13T01:41:18;4.10;;;3.77;;
3149;SDS011;32503;47.748;8.960;2023-10-13T01:43:46;4.40;;;4.10;;
3149;SDS011;32503;47.748;8.960;2023-10-13T01:46:13;4.73;;;4.33;;
3149;SDS011;32503;47.748;8.960;2023-10-13T01:48:40;7.20;;;4.70;;
3149;SDS011;32503;47.748;8.960;2023-10-13T01:51:09;5.27;;;4.87;;
3149;SDS011;32503;47.748;8.960;2023-10-13T01:53:37;8.67;;;4.13;;
3149;SDS011;32503;47.748;8.960;2023-10-13T01:56:06;5.90;;;3.90;;
3149;SDS011;32503;47.748;8.960;2023-10-13T01:58:35;3.73;;;3.20;;
3149;SDS011;32503;47.748;8.960;2023-10-13T02:01:06;3.90;;;3.50;;
3149;SDS011;32503;47.748;8.960;2023-10-13T02:03:33;3.97;;;3.57;;
3149;SDS011;32503;47.748;8.960;2023-10-13T02:06:01;5.93;;;4.40;;
3149;SDS011;32503;47.748;8.960;2023-10-13T02:08:29;4.73;;;4.40;;
3149;SDS011;32503;47.748;8.960;2023-10-13T02:10:57;4.03;;;3.70;;
3149;SDS011;32503;47.748;8.960;2023-10-13T02:13:25;5.03;;;3.90;;
3149;SDS011;32503;47.748;8.960;2023-10-13T02:15:53;5.97;;;5.40;;
3149;SDS011;32503;47.748;8.960;2023-10-13T02:18:21;5.97;;;4.77;;
3149;SDS011;32503;47.748;8.960;2023-10-13T02:20:52;6.20;;;4.60;;
3149;SDS011;32503;47.748;8.960;2023-10-13T02:23:22;4.87;;;4.40;;
3149;SDS011;32503;47.748;8.960;2023-10-13T02:25:50;12.13;;;5.63;;
3149;SDS011;32503;47.748;8.960;2023-10-13T02:28:26;5.43;;;4.37;;
3149;SDS011;32503;47.748;8.960;2023-10-13T02:31:01;6.40;;;4.27;;
3149;SDS011;32503;47.748;8.960;2023-10-13T02:33:28;9.90;;;5.20;;
3149;SDS011;32503;47.748;8.960;2023-10-13T02:35:56;5.13;;;3.80;;
3149;SDS011;32503;47.748;8.960;2023-10-13T02:38:23;4.73;;;3.80;;
3149;SDS011;32503;47.748;8.960;2023-10-13T02:40:59;4.90;;;4.60;;
3149;SDS011;32503;47.748;8.960;2023-10-13T02:43:33;5.03;;;4.73;;
3149;SDS011;32503;47.748;8.960;2023-10-13T02:46:00;4.70;;;4.13;;
3149;SDS011;32503;47.748;8.960;2023-10-13T02:48:27;6.53;;;4.40;;
3149;SDS011;32503;47.748;8.960;2023-10-13T02:51:05;6.87;;;5.43;;
3149;SDS011;32503;47.748;8.960;2023-10-13T02:53:40;5.90;;;5.03;;
3149;SDS011;32503;47.748;8.960;2023-10-13T02:56:12;7.30;;;5.13;;
3149;SDS011;32503;47.748;8.960;2023-10-13T02:58:40;9.80;;;4.93;;
3149;SDS011;32503;47.748;8.960;2023-10-13T03:01:10;7.23;;;5.20;;
3149;SDS011;32503;47.748;8.960;2023-10-13T03:03:47;5.27;;;4.87;;
3149;SDS011;32503;47.748;8.960;2023-10-13T03:06:19;6.63;;;4.40;;
3149;SDS011;32503;47.748;8.960;2023-10-13T03:08:48;5.20;;;4.80;;
3149;SDS011;32503;47.748;8.960;2023-10-13T03:11:15;5.13;;;4.27;;
3149;SDS011;32503;47.748;8.960;2023-10-13T03:13:48;5.23;;;4.83;;
3149;SDS011;32503;47.748;8.960;2023-10-13T03:16:17;5.30;;;4.90;;
3149;SDS011;32503;47.748;8.960;2023-10-13T03:18:45;6.83;;;5.10;;
3149;SDS011;32503;47.748;8.960;2023-10-13T03:21:23;5.50;;;5.00;;
3149;SDS011;32503;47.748;8.960;2023-10-13T03:23:56;5.57;;;4.93;;
3149;SDS011;32503;47.748;8.960;2023-10-13T03:26:30;5.50;;;5.00;;
3149;SDS011;32503;47.748;8.960;2023-10-13T03:29:03;6.47;;;5.50;;
3149;SDS011;32503;47.748;8.960;2023-10-13T03:31:33;5.77;;;5.27;;
3149;SDS011;32503;47.748;8.960;2023-10-13T03:34:04;8.13;;;5.63;;
3149;SDS011;32503;47.748;8.960;2023-10-13T03:36:36;9.30;;;5.10;;
3149;SDS011;32503;47.748;8.960;2023-10-13T03:39:23;8.53;;;5.60;;
3149;SDS011;32503;47.748;8.960;2023-10-13T03:41:56;6.90;;;5.70;;
3149;SDS011;32503;47.748;8.960;2023-10-13T03:44:26;7.50;;;5.40;;
3149;SDS011;32503;47.748;8.960;2023-10-13T03:46:55;5.20;;;4.80;;
3149;SDS011;32503;47.748;8.960;2023-10-13T03:49:33;5.77;;;4.57;;
3149;SDS011;32503;47.748;8.960;2023-10-13T03:52:03;5.73;;;5.13;;
3149;SDS011;32503;47.748;8.960;2023-10-13T03:54:31;6.63;;;4.67;;
3149;SDS011;32503;47.748;8.960;2023-10-13T03:57:00;7.20;;;5.90;;
3149;SDS011;32503;47.748;8.960;2023-10-13T03:59:37;8.27;;;5.07;;
3149;SDS011;32503;47.748;8.960;2023-10-13T04:02:05;6.87;;;5.50;;
3149;SDS011;32503;47.748;8.960;2023-10-13T04:04:42;6.27;;;5.70;;
3149;SDS011;32503;47.748;8.960;2023-10-13T04:07:13;8.83;;;5.63;;
3149;SDS011;32503;47.748;8.960;2023-10-13T04:10:07;5.93;;;5.40;;
3149;SDS011;32503;47.748;8.960;2023-10-13T04:12:51;6.80;;;6.10;;
3149;SDS011;32503;47.748;8.960;2023-10-13T04:15:37;8.20;;;5.77;;
3149;SDS011;32503;47.748;8.960;2023-10-13T04:18:08;7.53;;;6.80;;
3149;SDS011;32503;47.748;8.960;2023-10-13T04:20:58;5.77;;;5.13;;
3149;SDS011;32503;47.748;8.960;2023-10-13T04:23:43;10.97;;;6.20;;
3149;SDS011;32503;47.748;8.960;2023-10-13T04:26:25;7.30;;;5.23;;
3149;SDS011;32503;47.748;8.960;2023-10-13T04:29:02;6.60;;;5.37;;
3149;SDS011;32503;47.748;8.960;2023-10-13T04:31:37;6.63;;;6.13;;
3149;SDS011;32503;47.748;8.960;2023-10-13T04:34:25;6.40;;;5.57;;
3149;SDS011;32503;47.748;8.960;2023-10-13T04:37:02;7.97;;;6.37;;
3149;SDS011;32503;47.748;8.960;2023-10-13T04:39:54;7.97;;;5.47;;
3149;SDS011;32503;47.748;8.960;2023-10-13T04:42:24;7.80;;;5.83;;
3149;SDS011;32503;47.748;8.960;2023-10-13T04:45:15;7.90;;;5.70;;
3149;SDS011;32503;47.748;8.960;2023-10-13T04:48:02;6.50;;;5.10;;
3149;SDS011;32503;47.748;8.960;2023-10-13T04:50:43;5.60;;;5.10;;
3149;SDS011;32503;47.748;8.960;2023-10-13T04:53:12;7.70;;;5.47;;
3149;SDS011;32503;47.748;8.960;2023-10-13T04:55:58;5.53;;;5.03;;
3149;SDS011;32503;47.748;8.960;2023-10-13T04:58:53;7.00;;;5.90;;
3149;SDS011;32503;47.748;8.960;2023-10-13T05:01:38;8.70;;;6.27;;
3149;SDS011;32503;47.748;8.960;2023-10-13T05:04:37;4.90;;;4.60;;
3149;SDS011;32503;47.748;8.960;2023-10-13T05:07:20;5.07;;;4.57;;
3149;SDS011;32503;47.748;8.960;2023-10-13T05:10:05;5.87;;;4.87;;
3149;SDS011;32503;47.748;8.960;2023-10-13T05:12:50;5.40;;;4.93;;
3149;SDS011;32503;47.748;8.960;2023-10-13T05:15:42;9.53;;;6.03;;
3149;SDS011;32503;47.748;8.960;2023-10-13T05:18:27;5.53;;;5.13;;
3149;SDS011;32503;47.748;8.960;2023-10-13T05:21:13;15.07;;;10.40;;
3149;SDS011;32503;47.748;8.960;2023-10-13T05:23:57;9.57;;;6.80;;
3149;SDS011;32503;47.748;8.960;2023-10-13T05:26:42;8.20;;;7.00;;
3149;SDS011;32503;47.748;8.960;2023-10-13T05:29:26;12.83;;;6.73;;
3149;SDS011;32503;47.748;8.960;2023-10-13T05:32:11;7.20;;;6.50;;
3149;SDS011;32503;47.748;8.960;2023-10-13T05:34:56;12.87;;;8.90;;
3149;SDS011;32503;47.748;8.960;2023-10-13T05:37:42;15.67;;;10.43;;
3149;SDS011;32503;47.748;8.960;2023-10-13T05:40:27;15.13;;;9.67;;
3149;SDS011;32503;47.748;8.960;2023-10-13T05:43:12;16.27;;;8.47;;
3149;SDS011;32503;47.748;8.960;2023-10-13T05:46:00;11.10;;;8.70;;
3149;SDS011;32503;47.748;8.960;2023-10-13T05:48:43;8.10;;;7.27;;
3149;SDS011;32503;47.748;8.960;2023-10-13T05:51:34;9.03;;;8.20;;
3149;SDS011;32503;47.748;8.960;2023-10-13T05:54:13;11.57;;;7.80;;
3149;SDS011;32503;47.748;8.960;2023-10-13T05:56:58;13.40;;;8.03;;
3149;SDS011;32503;47.748;8.960;2023-10-13T05:59:42;12.00;;;8.27;;
3149;SDS011;32503;47.748;8.960;2023-10-13T06:02:27;7.40;;;6.70;;
3149;SDS011;32503;47.748;8.960;2023-10-13T06:05:17;7.03;;;6.33;;
3149;SDS011;32503;47.748;8.960;2023-10-13T06:08:02;8.50;;;7.17;;
3149;SDS011;32503;47.748;8.960;2023-10-13T06:10:49;8.90;;;7.00;;
3149;SDS011;32503;47.748;8.960;2023-10-13T06:13:48;6.93;;;6.33;;
3149;SDS011;32503;47.748;8.960;2023-10-13T06:16:32;8.30;;;6.20;;
3149;SDS011;32503;47.748;8.960;2023-10-13T06:19:17;11.23;;;6.80;;
3149;SDS011;32503;47.748;8.960;2023-10-13T06:22:01;8.90;;;6.50;;
3149;SDS011;32503;47.748;8.960;2023-10-13T06:24:47;5.83;;;5.33;;
3149;SDS011;32503;47.748;8.960;2023-10-13T06:27:33;5.57;;;5.03;;
3149;SDS011;32503;47.748;8.960;2023-10-13T06:30:17;5.60;;;5.20;;
3149;SDS011;32503;47.748;8.960;2023-10-13T06:32:44;7.00;;;6.30;;
3149;SDS011;32503;47.748;8.960;2023-10-13T06:35:11;7.00;;;6.00;;
3149;SDS011;32503;47.748;8.960;2023-10-13T06:37:48;6.90;;;6.40;;
3149;SDS011;32503;47.748;8.960;2023-10-13T06:40:15;7.50;;;6.40;;
3149;SDS011;32503;47.748;8.960;2023-10-13T06:42:59;8.43;;;7.50;;
3149;SDS011;32503;47.748;8.960;2023-10-13T06:45:43;7.77;;;6.57;;
3149;SDS011;32503;47.748;8.960;2023-10-13T06:48:15;8.77;;;7.13;;
3149;SDS011;32503;47.748;8.960;2023-10-13T06:50:48;9.40;;;8.03;;
3149;SDS011;32503;47.748;8.960;2023-10-13T06:53:17;12.70;;;8.13;;
3149;SDS011;32503;47.748;8.960;2023-10-13T06:55:44;7.47;;;6.77;;
3149;SDS011;32503;47.748;8.960;2023-10-13T06:58:15;8.93;;;6.97;;
3149;SDS011;32503;47.748;8.960;2023-10-13T07:00:48;10.13;;;6.13;;
3149;SDS011;32503;47.748;8.960;2023-10-13T07:03:20;6.60;;;4.87;;
3149;SDS011;32503;47.748;8.960;2023-10-13T07:05:50;6.20;;;5.53;;
3149;SDS011;32503;47.748;8.960;2023-10-13T07:08:18;7.63;;;5.43;;
3149;SDS011;32503;47.748;8.960;2023-10-13T07:10:49;6.37;;;5.87;;
3149;SDS011;32503;47.748;8.960;2023-10-13T07:13:28;5.57;;;5.07;;
3149;SDS011;32503;47.748;8.960;2023-10-13T07:15:56;6.80;;;4.73;;
3149;SDS011;32503;47.748;8.960;2023-10-13T07:18:30;5.80;;;5.40;;
3149;SDS011;32503;47.748;8.960;2023-10-13T07:21:02;5.63;;;5.23;;
3149;SDS011;32503;47.748;8.960;2023-10-13T07:23:35;6.33;;;5.53;;
3149;SDS011;32503;47.748;8.960;2023-10-13T07:26:03;6.97;;;5.50;;
3149;SDS011;32503;47.748;8.960;2023-10-13T07:28:34;7.00;;;5.13;;
3149;SDS011;32503;47.748;8.960;2023-10-13T07:31:08;6.90;;;5.10;;
3149;SDS011;32503;47.748;8.960;2023-10-13T07:33:39;5.57;;;5.10;;
3149;SDS011;32503;47.748;8.960;2023-10-13T07:36:08;5.33;;;5.00;;
3149;SDS011;32503;47.748;8.960;2023-10-13T07:38:41;7.10;;;6.10;;
3149;SDS011;32503;47.748;8.960;2023-10-13T07:41:13;5.20;;;4.83;;
3149;SDS011;32503;47.748;8.960;2023-10-13T07:43:43;5.57;;;5.07;;
3149;SDS011;32503;47.748;8.960;2023-10-13T07:46:11;5.87;;;5.23;;
3149;SDS011;32503;47.748;8.960;2023-10-13T07:48:38;6.27;;;5.67;;
3149;SDS011;32503;47.748;8.960;2023-10-13T07:51:10;5.40;;;4.97;;
3149;SDS011;32503;47.748;8.960;2023-10-13T07:53:41;7.83;;;5.80;;
3149;SDS011;32503;47.748;8.960;2023-10-13T07:56:08;5.93;;;5.33;;
3149;SDS011;32503;47.748;8.960;2023-10-13T07:58:37;6.23;;;5.53;;
3149;SDS011;32503;47.748;8.960;2023-10-13T08:01:19;8.40;;;5.57;;
3149;SDS011;32503;47.748;8.960;2023-10-13T08:03:46;5.80;;;5.30;;
3149;SDS011;32503;47.748;8.960;2023-10-13T08:06:22;7.60;;;5.50;;
3149;SDS011;32503;47.748;8.960;2023-10-13T08:08:53;7.47;;;5.67;;
3149;SDS011;32503;47.748;8.960;2023-10-13T08:11:24;8.83;;;5.77;;
3149;SDS011;32503;47.748;8.960;2023-10-13T08:13:56;6.13;;;5.50;;
3149;SDS011;32503;47.748;8.960;2023-10-13T08:16:28;5.27;;;4.83;;
3149;SDS011;32503;47.748;8.960;2023-10-13T08:19:10;8.30;;;4.73;;
3149;SDS011;32503;47.748;8.960;2023-10-13T08:21:40;7.33;;;6.00;;
3149;SDS011;32503;47.748;8.960;2023-10-13T08:24:14;8.37;;;6.30;;
3149;SDS011;32503;47.748;8.960;2023-10-13T08:26:50;5.87;;;5.23;;
3149;SDS011;32503;47.748;8.960;2023-10-13T08:29:23;7.03;;;4.90;;
3149;SDS011;32503;47.748;8.960;2023-10-13T08:32:09;6.07;;;5.67;;
3149;SDS011;32503;47.748;8.960;2023-10-13T08:35:01;6.93;;;5.90;;
3149;SDS011;32503;47.748;8.960;2023-10-13T08:37:49;9.20;;;5.90;;
3149;SDS011;32503;47.748;8.960;2023-10-13T08:40:29;7.30;;;5.53;;
3149;SDS011;32503;47.748;8.960;2023-10-13T08:43:14;6.47;;;5.80;;
3149;SDS011;32503;47.748;8.960;2023-10-13T08:45:42;6.33;;;5.70;;
3149;SDS011;32503;47.748;8.960;2023-10-13T08:48:26;5.70;;;5.20;;
3149;SDS011;32503;47.748;8.960;2023-10-13T08:50:59;5.30;;;4.90;;
3149;SDS011;32503;47.748;8.960;2023-10-13T08:53:36;5.67;;;5.17;;
3149;SDS011;32503;47.748;8.960;2023-10-13T08:56:10;7.37;;;5.50;;
3149;SDS011;32503;47.748;8.960;2023-10-13T08:58:43;7.87;;;5.07;;
3149;SDS011;32503;47.748;8.960;2023-10-13T09:01:29;5.80;;;5.20;;
3149;SDS011;32503;47.748;8.960;2023-10-13T09:04:07;4.73;;;4.40;;
3149;SDS011;32503;47.748;8.960;2023-10-13T09:06:47;7.37;;;4.50;;
3149;SDS011;32503;47.748;8.960;2023-10-13T09:09:46;5.23;;;4.50;;
3149;SDS011;32503;47.748;8.960;2023-10-13T09:12:36;5.23;;;4.60;;
3149;SDS011;32503;47.748;8.960;2023-10-13T09:15:11;5.37;;;4.87;;
3149;SDS011;32503;47.748;8.960;2023-10-13T09:17:43;5.60;;;5.10;;
3149;SDS011;32503;47.748;8.960;2023-10-13T09:20:39;4.80;;;4.50;;
3149;SDS011;32503;47.748;8.960;2023-10-13T09:23:11;4.67;;;4.27;;
3149;SDS011;32503;47.748;8.960;2023-10-13T09:25:49;7.03;;;4.93;;
3149;SDS011;32503;47.748;8.960;2023-10-13T09:28:23;5.40;;;4.90;;
3149;SDS011;32503;47.748;8.960;2023-10-13T09:30:53;4.87;;;4.40;;
3149;SDS011;32503;47.748;8.960;2023-10-13T09:33:22;4.90;;;4.50;;
3149;SDS011;32503;47.748;8.960;2023-10-13T09:36:00;5.83;;;4.73;;
3149;SDS011;32503;47.748;8.960;2023-10-13T09:38:30;5.23;;;4.73;;
3149;SDS011;32503;47.748;8.960;2023-10-13T09:40:58;4.10;;;3.80;;
3149;SDS011;32503;47.748;8.960;2023-10-13T09:43:42;7.27;;;3.97;;
3149;SDS011;32503;47.748;8.960;2023-10-13T09:46:10;4.27;;;4.00;;
3149;SDS011;32503;47.748;8.960;2023-10-13T09:48:44;3.67;;;3.47;;
3149;SDS011;32503;47.748;8.960;2023-10-13T09:51:13;3.67;;;3.47;;
3149;SDS011;32503;47.748;8.960;2023-10-13T09:53:47;7.20;;;5.37;;
3149;SDS011;32503;47.748;8.960;2023-10-13T09:56:24;5.70;;;3.03;;
3149;SDS011;32503;47.748;8.960;2023-10-13T09:58:56;4.30;;;3.87;;
3149;SDS011;32503;47.748;8.960;2023-10-13T10:01:33;4.60;;;4.20;;
3149;SDS011;32503;47.748;8.960;2023-10-13T10:04:15;4.73;;;3.80;;
3149;SDS011;32503;47.748;8.960;2023-10-13T10:06:52;5.97;;;3.73;;
3149;SDS011;32503;47.748;8.960;2023-10-13T10:09:19;3.40;;;3.10;;
3149;SDS011;32503;47.748;8.960;2023-10-13T10:12:19;4.60;;;4.13;;
3149;SDS011;32503;47.748;8.960;2023-10-13T10:15:07;3.20;;;3.10;;
3149;SDS011;32503;47.748;8.960;2023-10-13T10:17:53;4.30;;;3.90;;
3149;SDS011;32503;47.748;8.960;2023-10-13T10:20:27;4.00;;;3.00;;
3149;SDS011;32503;47.748;8.960;2023-10-13T10:23:06;3.50;;;3.30;;
3149;SDS011;32503;47.748;8.960;2023-10-13T10:25:37;3.73;;;3.53;;
3149;SDS011;32503;47.748;8.960;2023-10-13T10:28:09;3.77;;;3.57;;
3149;SDS011;32503;47.748;8.960;2023-10-13T10:30:41;3.80;;;3.23;;
3149;SDS011;32503;47.748;8.960;2023-10-13T10:33:09;3.40;;;3.10;;
3149;SDS011;32503;47.748;8.960;2023-10-13T10:35:39;4.20;;;3.80;;
3149;SDS011;32503;47.748;8.960;2023-10-13T10:38:09;4.63;;;3.70;;
3149;SDS011;32503;47.748;8.960;2023-10-13T10:40:50;2.60;;;2.40;;
3149;SDS011;32503;47.748;8.960;2023-10-13T10:43:22;3.33;;;3.13;;
3149;SDS011;32503;47.748;8.960;2023-10-13T10:45:53;3.77;;;3.00;;
3149;SDS011;32503;47.748;8.960;2023-10-13T10:48:25;2.73;;;2.50;;
3149;SDS011;32503;47.748;8.960;2023-10-13T10:50:59;3.30;;;3.10;;
3149;SDS011;32503;47.748;8.960;2023-10-13T10:53:33;3.00;;;2.80;;
3149;SDS011;32503;47.748;8.960;2023-10-13T10:56:09;3.50;;;2.97;;
3149;SDS011;32503;47.748;8.960;2023-10-13T10:58:46;4.30;;;2.97;;
3149;SDS011;32503;47.748;8.960;2023-10-13T11:01:14;2.93;;;2.63;;
3149;SDS011;32503;47.748;8.960;2023-10-13T11:03:55;3.17;;;2.97;;
3149;SDS011;32503;47.748;8.960;2023-10-13T11:06:24;3.60;;;3.33;;
3149;SDS011;32503;47.748;8.960;2023-10-13T11:09:02;4.43;;;2.50;;
3149;SDS011;32503;47.748;8.960;2023-10-13T11:11:33;3.10;;;2.10;;
3149;SDS011;32503;47.748;8.960;2023-10-13T11:14:01;2.10;;;2.00;;
3149;SDS011;32503;47.748;8.960;2023-10-13T11:16:46;3.10;;;2.77;;
3149;SDS011;32503;47.748;8.960;2023-10-13T11:19:19;2.67;;;2.47;;
3149;SDS011;32503;47.748;8.960;2023-10-13T11:21:50;2.60;;;2.50;;
3149;SDS011;32503;47.748;8.960;2023-10-13T11:24:22;3.10;;;2.43;;
3149;SDS011;32503;47.748;8.960;2023-10-13T11:26:49;4.77;;;2.87;;
3149;SDS011;32503;47.748;8.960;2023-10-13T11:29:17;2.90;;;2.47;;
3149;SDS011;32503;47.748;8.960;2023-10-13T11:31:46;3.47;;;2.37;;
3149;SDS011;32503;47.748;8.960;2023-10-13T11:34:20;2.60;;;2.40;;
3149;SDS011;32503;47.748;8.960;2023-10-13T11:36:47;3.27;;;2.97;;
3149;SDS011;32503;47.748;8.960;2023-10-13T11:39:14;2.50;;;2.30;;
3149;SDS011;32503;47.748;8.960;2023-10-13T11:41:49;4.10;;;3.40;;
3149;SDS011;32503;47.748;8.960;2023-10-13T11:44:20;2.60;;;2.37;;
3149;SDS011;32503;47.748;8.960;2023-10-13T11:46:56;2.50;;;2.30;;
3149;SDS011;32503;47.748;8.960;2023-10-13T11:49:40;3.10;;;2.90;;
3149;SDS011;32503;47.748;8.960;2023-10-13T11:52:07;2.83;;;2.67;;
3149;SDS011;32503;47.748;8.960;2023-10-13T11:54:43;2.30;;;2.20;;
3149;SDS011;32503;47.748;8.960;2023-10-13T11:57:13;2.73;;;2.53;;
3149;SDS011;32503;47.748;8.960;2023-10-13T11:59:44;2.90;;;2.70;;
3149;SDS011;32503;47.748;8.960;2023-10-13T12:02:18;2.50;;;2.40;;
3149;SDS011;32503;47.748;8.960;2023-10-13T12:05:05;2.60;;;2.50;;
3149;SDS011;32503;47.748;8.960;2023-10-13T12:07:41;2.50;;;2.40;;
3149;SDS011;32503;47.748;8.960;2023-10-13T12:10:13;3.13;;;2.63;;
3149;SDS011;32503;47.748;8.960;2023-10-13T12:12:58;2.50;;;2.30;;
3149;SDS011;32503;47.748;8.960;2023-10-13T12:15:31;2.60;;;2.40;;
3149;SDS011;32503;47.748;8.960;2023-10-13T12:18:16;5.53;;;2.80;;
3149;SDS011;32503;47.748;8.960;2023-10-13T12:20:44;3.03;;;2.80;;
3149;SDS011;32503;47.748;8.960;2023-10-13T12:23:12;2.77;;;2.57;;
3149;SDS011;32503;47.748;8.960;2023-10-13T12:25:45;3.00;;;2.80;;
3149;SDS011;32503;47.748;8.960;2023-10-13T12:28:24;4.27;;;2.87;;
3149;SDS011;32503;47.748;8.960;2023-10-13T12:30:54;3.50;;;3.20;;
3149;SDS011;32503;47.748;8.960;2023-10-13T12:33:22;3.80;;;3.03;;
3149;SDS011;32503;47.748;8.960;2023-10-13T12:35:55;2.50;;;2.30;;
3149;SDS011;32503;47.748;8.960;2023-10-13T12:38:32;2.63;;;2.43;;
3149;SDS011;32503;47.748;8.960;2023-10-13T12:41:16;3.63;;;3.33;;
3149;SDS011;32503;47.748;8.960;2023-10-13T12:44:03;2.40;;;2.30;;
3149;SDS011;32503;47.748;8.960;2023-10-13T12:46:49;2.90;;;2.70;;
3149;SDS011;32503;47.748;8.960;2023-10-13T12:49:34;3.10;;;2.17;;
3149;SDS011;32503;47.748;8.960;2023-10-13T12:52:14;3.10;;;2.80;;
3149;SDS011;32503;47.748;8.960;2023-10-13T12:54:44;2.60;;;2.33;;
3149;SDS011;32503;47.748;8.960;2023-10-13T12:57:19;2.90;;;2.70;;
3149;SDS011;32503;47.748;8.960;2023-10-13T12:59:49;2.87;;;2.67;;
3149;SDS011;32503;47.748;8.960;2023-10-13T13:02:18;2.67;;;2.57;;
3149;SDS011;32503;47.748;8.960;2023-10-13T13:04:46;2.90;;;2.80;;
3149;SDS011;32503;47.748;8.960;2023-10-13T13:07:19;3.13;;;2.77;;
3149;SDS011;32503;47.748;8.960;2023-10-13T13:09:46;2.60;;;2.40;;
3149;SDS011;32503;47.748;8.960;2023-10-13T13:12:15;5.40;;;4.90;;
3149;SDS011;32503;47.748;8.960;2023-10-13T13:14:42;8.80;;;7.50;;
3149;SDS011;32503;47.748;8.960;2023-10-13T13:17:12;3.77;;;3.57;;
3149;SDS011;32503;47.748;8.960;2023-10-13T13:19:39;2.87;;;2.67;;
3149;SDS011;32503;47.748;8.960;2023-10-13T13:22:06;2.40;;;2.20;;
3149;SDS011;32503;47.748;8.960;2023-10-13T13:24:37;3.13;;;2.83;;
3149;SDS011;32503;47.748;8.960;2023-10-13T13:27:08;2.27;;;2.17;;
3149;SDS011;32503;47.748;8.960;2023-10-13T13:29:39;3.07;;;2.73;;
3149;SDS011;32503;47.748;8.960;2023-10-13T13:32:06;3.33;;;3.03;;
3149;SDS011;32503;47.748;8.960;2023-10-13T13:34:50;2.70;;;2.50;;
3149;SDS011;32503;47.748;8.960;2023-10-13T13:37:29;2.83;;;2.63;;
3149;SDS011;32503;47.748;8.960;2023-10-13T13:39:56;2.63;;;2.43;;
3149;SDS011;32503;47.748;8.960;2023-10-13T13:42:38;2.37;;;2.27;;
3149;SDS011;32503;47.748;8.960;2023-10-13T13:45:08;3.17;;;2.80;;
3149;SDS011;32503;47.748;8.960;2023-10-13T13:47:46;2.33;;;2.13;;
3149;SDS011;32503;47.748;8.960;2023-10-13T13:50:19;2.93;;;2.57;;
3149;SDS011;32503;47.748;8.960;2023-10-13T13:52:51;11.17;;;10.27;;
3149;SDS011;32503;47.748;8.960;2023-10-13T13:55:21;4.80;;;4.50;;
3149;SDS011;32503;47.748;8.960;2023-10-13T13:57:49;2.73;;;2.53;;
3149;SDS011;32503;47.748;8.960;2023-10-13T14:00:16;3.00;;;2.80;;
3149;SDS011;32503;47.748;8.960;2023-10-13T14:03:02;2.80;;;2.43;;
3149;SDS011;32503;47.748;8.960;2023-10-13T14:05:30;2.53;;;2.30;;
3149;SDS011;32503;47.748;8.960;2023-10-13T14:07:58;3.50;;;3.20;;
3149;SDS011;32503;47.748;8.960;2023-10-13T14:10:25;3.07;;;2.87;;
3149;SDS011;32503;47.748;8.960;2023-10-13T14:13:18;2.97;;;2.77;;
3149;SDS011;32503;47.748;8.960;2023-10-13T14:15:47;2.07;;;1.97;;
3149;SDS011;32503;47.748;8.960;2023-10-13T14:18:21;5.03;;;2.63;;
3149;SDS011;32503;47.748;8.960;2023-10-13T14:20:56;2.33;;;2.20;;
3149;SDS011;32503;47.748;8.960;2023-10-13T14:23:29;2.30;;;2.13;;
3149;SDS011;32503;47.748;8.960;2023-10-13T14:25:56;3.90;;;2.50;;
3149;SDS011;32503;47.748;8.960;2023-10-13T14:28:23;3.07;;;2.87;;
3149;SDS011;32503;47.748;8.960;2023-10-13T14:30:59;2.70;;;2.50;;
3149;SDS011;32503;47.748;8.960;2023-10-13T14:33:35;7.90;;;2.30;;
3149;SDS011;32503;47.748;8.960;2023-10-13T14:36:05;5.73;;;2.50;;
3149;SDS011;32503;47.748;8.960;2023-10-13T14:38:35;2.20;;;2.00;;
3149;SDS011;32503;47.748;8.960;2023-10-13T14:41:02;3.73;;;2.70;;
3149;SDS011;32503;47.748;8.960;2023-10-13T14:43:30;2.60;;;2.40;;
3149;SDS011;32503;47.748;8.960;2023-10-13T14:45:57;2.50;;;2.33;;
3149;SDS011;32503;47.748;8.960;2023-10-13T14:48:26;3.07;;;2.17;;
3149;SDS011;32503;47.748;8.960;2023-10-13T14:50:53;3.73;;;2.40;;
3149;SDS011;32503;47.748;8.960;2023-10-13T14:53:21;2.83;;;2.60;;
3149;SDS011;32503;47.748;8.960;2023-10-13T14:55:48;2.20;;;2.10;;
3149;SDS011;32503;47.748;8.960;2023-10-13T14:58:16;2.40;;;2.20;;
3149;SDS011;32503;47.748;8.960;2023-10-13T15:00:43;3.13;;;2.93;;
3149;SDS011;32503;47.748;8.960;2023-10-13T15:03:11;8.60;;;3.23;;
3149;SDS011;32503;47.748;8.960;2023-10-13T15:05:38;3.10;;;2.90;;
3149;SDS011;32503;47.748;8.960;2023-10-13T15:08:08;3.43;;;2.93;;
3149;SDS011;32503;47.748;8.960;2023-10-13T15:10:36;3.17;;;3.00;;
3149;SDS011;32503;47.748;8.960;2023-10-13T15:13:04;3.33;;;3.03;;
3149;SDS011;32503;47.748;8.960;2023-10-13T15:15:31;3.03;;;2.90;;
3149;SDS011;32503;47.748;8.960;2023-10-13T15:17:58;3.00;;;2.50;;
3149;SDS011;32503;47.748;8.960;2023-10-13T15:20:28;3.10;;;2.90;;
3149;SDS011;32503;47.748;8.960;2023-10-13T15:22:55;3.13;;;2.93;;
3149;SDS011;32503;47.748;8.960;2023-10-13T15:25:25;3.03;;;2.83;;
3149;SDS011;32503;47.748;8.960;2023-10-13T15:28:05;3.03;;;2.70;;
3149;SDS011;32503;47.748;8.960;2023-10-13T15:30:34;4.07;;;3.67;;
3149;SDS011;32503;47.748;8.960;2023-10-13T15:33:17;4.10;;;3.70;;
3149;SDS011;32503;47.748;8.960;2023-10-13T15:35:45;2.20;;;2.10;;
3149;SDS011;32503;47.748;8.960;2023-10-13T15:38:12;4.03;;;2.87;;
3149;SDS011;32503;47.748;8.960;2023-10-13T15:40:40;2.93;;;2.53;;
3149;SDS011;32503;47.748;8.960;2023-10-13T15:43:10;2.90;;;2.70;;
3149;SDS011;32503;47.748;8.960;2023-10-13T15:45:37;2.43;;;2.20;;